createdAt,value
2017-07-16T00:00:02.212Z,15.19
2017-07-16T00:01:12.146Z,15.18
2017-07-16T00:02:22.398Z,15.29
2017-07-16T00:03:32.321Z,15.27
2017-07-16T00:04:42.499Z,15.26
2017-07-16T00:05:52.118Z,15.27
2017-07-16T00:07:02.372Z,15.25
2017-07-16T00:08:12.306Z,15.12
2017-07-16T00:09:22.551Z,15.22
2017-07-16T00:10:33.054Z,15.15
2017-07-16T00:11:43.303Z,15.11
2017-07-16T00:12:53.545Z,15.11
2017-07-16T00:14:03.476Z,15.08
2017-07-16T00:15:13.411Z,15.14
2017-07-16T00:16:23.602Z,15.1
2017-07-16T00:17:33.531Z,14.97
2017-07-16T00:18:43.455Z,15.02
2017-07-16T00:19:53.700Z,15.04
2017-07-16T00:21:03.345Z,15
2017-07-16T00:22:13.519Z,14.93
2017-07-16T00:23:23.757Z,14.94
2017-07-16T00:24:34.015Z,14.92
2017-07-16T00:25:44.256Z,14.9
2017-07-16T00:26:53.874Z,14.89
2017-07-16T00:28:04.047Z,14.87
2017-07-16T00:29:14.022Z,14.89
2017-07-16T00:30:24.308Z,14.85
2017-07-16T00:31:34.545Z,14.85
2017-07-16T00:32:44.790Z,14.9
2017-07-16T00:33:55.029Z,14.87
2017-07-16T00:35:05.275Z,14.82
2017-07-16T00:36:15.236Z,14.89
2017-07-16T00:37:24.849Z,14.86
2017-07-16T00:38:34.472Z,14.85
2017-07-16T00:39:44.685Z,14.89
2017-07-16T00:40:54.934Z,14.87
2017-07-16T00:42:05.176Z,14.86
2017-07-16T00:43:15.095Z,14.89
2017-07-16T00:44:25.020Z,14.92
2017-07-16T00:45:35.522Z,14.86
2017-07-16T00:46:45.457Z,14.87
2017-07-16T00:47:55.386Z,14.9
2017-07-16T00:49:05.633Z,14.85
2017-07-16T00:50:15.247Z,14.9
2017-07-16T00:51:25.434Z,14.87
2017-07-16T00:52:35.681Z,14.9
2017-07-16T00:53:45.354Z,14.9
2017-07-16T00:54:55.589Z,14.92
2017-07-16T00:56:05.198Z,14.9
2017-07-16T00:57:15.369Z,14.89
2017-07-16T00:58:25.637Z,14.89
2017-07-16T00:59:35.568Z,14.86
2017-07-16T01:00:45.811Z,14.79
2017-07-16T01:01:56.061Z,14.81
2017-07-16T01:03:06.270Z,14.85
2017-07-16T01:04:16.517Z,14.82
2017-07-16T01:05:26.756Z,14.79
2017-07-16T01:06:37.003Z,14.79
2017-07-16T01:07:46.932Z,14.78
2017-07-16T01:08:57.425Z,14.79
2017-07-16T01:10:07.353Z,14.71
2017-07-16T01:11:17.599Z,14.66
2017-07-16T01:12:27.846Z,14.78
2017-07-16T01:13:38.791Z,14.66
2017-07-16T01:14:48.965Z,14.77
2017-07-16T01:15:59.212Z,14.62
2017-07-16T01:17:09.155Z,14.61
2017-07-16T01:18:19.075Z,14.59
2017-07-16T01:19:28.368Z,14.62
2017-07-16T01:20:38.928Z,14.63
2017-07-16T01:21:49.171Z,14.61
2017-07-16T01:22:58.779Z,14.55
2017-07-16T01:24:08.396Z,14.53
2017-07-16T01:25:18.640Z,14.45
2017-07-16T01:26:28.511Z,14.53
2017-07-16T01:27:37.811Z,14.51
2017-07-16T01:28:47.734Z,14.45
2017-07-16T01:29:57.357Z,14.44
2017-07-16T01:31:07.277Z,14.45
2017-07-16T01:32:17.515Z,14.37
2017-07-16T01:33:27.448Z,14.33
2017-07-16T01:34:37.696Z,14.33
2017-07-16T01:35:47.942Z,14.33
2017-07-16T01:36:57.868Z,14.3
2017-07-16T01:38:08.371Z,14.25
2017-07-16T01:39:18.627Z,14.25
2017-07-16T01:40:28.909Z,14.26
2017-07-16T01:41:38.852Z,14.26
2017-07-16T01:42:49.095Z,14.25
2017-07-16T01:43:59.318Z,14.25
2017-07-16T01:45:09.569Z,14.33
2017-07-16T01:46:19.811Z,14.3
2017-07-16T01:47:30.060Z,14.26
2017-07-16T01:48:39.991Z,14.2
2017-07-16T01:49:50.182Z,14.2
2017-07-16T01:51:00.432Z,14.25
2017-07-16T01:52:10.063Z,14.18
2017-07-16T01:53:20.307Z,14.23
2017-07-16T01:54:30.554Z,14.15
2017-07-16T01:55:41.062Z,14.16
2017-07-16T01:56:50.677Z,14.16
2017-07-16T01:58:00.917Z,14.19
2017-07-16T01:59:10.868Z,14.19
2017-07-16T02:00:21.108Z,14.2
2017-07-16T02:01:31.294Z,14.16
2017-07-16T02:02:41.548Z,14.11
2017-07-16T02:03:51.472Z,14.12
2017-07-16T02:05:01.397Z,14.15
2017-07-16T02:06:11.330Z,14.13
2017-07-16T02:07:21.816Z,14.12
2017-07-16T02:08:32.065Z,14.12
2017-07-16T02:09:42.002Z,14.05
2017-07-16T02:10:51.932Z,14.03
2017-07-16T02:12:01.865Z,14.04
2017-07-16T02:13:12.432Z,14.05
2017-07-16T02:14:22.680Z,14.07
2017-07-16T02:15:32.928Z,14.07
2017-07-16T02:16:42.549Z,14.03
2017-07-16T02:17:52.482Z,14
2017-07-16T02:19:02.379Z,14.07
2017-07-16T02:20:12.630Z,13.95
2017-07-16T02:21:22.241Z,14.05
2017-07-16T02:22:32.165Z,14.01
2017-07-16T02:23:42.085Z,13.95
2017-07-16T02:24:52.364Z,14
2017-07-16T02:26:02.603Z,13.97
2017-07-16T02:27:12.847Z,14
2017-07-16T02:28:23.083Z,13.95
2017-07-16T02:29:33.348Z,14.03
2017-07-16T02:30:43.525Z,13.95
2017-07-16T02:31:53.448Z,13.98
2017-07-16T02:33:03.371Z,13.98
2017-07-16T02:34:13.618Z,13.95
2017-07-16T02:35:23.228Z,13.95
2017-07-16T02:36:33.731Z,13.89
2017-07-16T02:37:43.653Z,13.91
2017-07-16T02:38:53.262Z,13.89
2017-07-16T02:40:02.894Z,13.93
2017-07-16T02:41:12.508Z,13.87
2017-07-16T02:42:22.686Z,13.93
2017-07-16T02:43:32.300Z,13.91
2017-07-16T02:44:42.549Z,13.86
2017-07-16T02:45:52.785Z,13.93
2017-07-16T02:47:02.709Z,13.95
2017-07-16T02:48:12.875Z,13.91
2017-07-16T02:49:23.113Z,13.91
2017-07-16T02:50:33.360Z,13.87
2017-07-16T02:51:43.596Z,13.89
2017-07-16T02:52:53.580Z,13.97
2017-07-16T02:54:03.753Z,13.89
2017-07-16T02:55:13.690Z,13.83
2017-07-16T02:56:23.927Z,13.87
2017-07-16T02:57:33.863Z,13.91
2017-07-16T02:58:43.801Z,13.87
2017-07-16T02:59:54.337Z,13.91
2017-07-16T03:01:04.569Z,13.83
2017-07-16T03:02:14.500Z,13.91
2017-07-16T03:03:24.787Z,13.79
2017-07-16T03:04:35.031Z,13.8
2017-07-16T03:05:45.215Z,13.76
2017-07-16T03:06:55.450Z,13.7
2017-07-16T03:08:05.688Z,13.71
2017-07-16T03:09:15.932Z,13.78
2017-07-16T03:10:26.187Z,13.75
2017-07-16T03:11:36.709Z,13.7
2017-07-16T03:12:46.948Z,13.65
2017-07-16T03:13:56.888Z,13.65
2017-07-16T03:15:06.849Z,13.65
2017-07-16T03:16:17.118Z,13.68
2017-07-16T03:17:27.294Z,13.64
2017-07-16T03:18:36.904Z,13.65
2017-07-16T03:19:46.838Z,13.62
2017-07-16T03:20:56.788Z,13.62
2017-07-16T03:22:06.694Z,13.64
2017-07-16T03:23:17.188Z,13.68
2017-07-16T03:24:27.446Z,13.62
2017-07-16T03:25:37.691Z,13.67
2017-07-16T03:26:47.314Z,13.73
2017-07-16T03:27:57.250Z,13.73
2017-07-16T03:29:07.483Z,13.71
2017-07-16T03:30:17.416Z,13.6
2017-07-16T03:31:27.348Z,13.65
2017-07-16T03:32:37.278Z,13.7
2017-07-16T03:33:47.216Z,13.67
2017-07-16T03:34:57.760Z,13.7
2017-07-16T03:36:07.684Z,13.65
2017-07-16T03:37:17.613Z,13.65
2017-07-16T03:38:27.869Z,13.64
2017-07-16T03:39:38.111Z,13.68
2017-07-16T03:40:48.292Z,13.64
2017-07-16T03:41:58.233Z,13.64
2017-07-16T03:43:08.171Z,13.61
2017-07-16T03:44:17.773Z,13.62
2017-07-16T03:45:28.022Z,13.68
2017-07-16T03:46:38.510Z,13.62
2017-07-16T03:47:48.748Z,13.7
2017-07-16T03:48:58.997Z,13.62
2017-07-16T03:50:08.931Z,13.62
2017-07-16T03:51:18.860Z,13.64
2017-07-16T03:52:29.042Z,13.76
2017-07-16T03:53:39.281Z,13.76
2017-07-16T03:54:49.209Z,13.73
2017-07-16T03:55:59.144Z,13.75
2017-07-16T03:57:09.385Z,13.78
2017-07-16T03:58:19.561Z,13.79
2017-07-16T03:59:29.479Z,13.83
2017-07-16T04:00:39.725Z,13.79
2017-07-16T04:01:49.987Z,13.89
2017-07-16T04:03:00.234Z,13.87
2017-07-16T04:04:10.109Z,13.82
2017-07-16T04:05:19.751Z,13.87
2017-07-16T04:06:29.989Z,13.86
2017-07-16T04:07:39.598Z,13.89
2017-07-16T04:08:49.840Z,13.87
2017-07-16T04:09:59.708Z,13.91
2017-07-16T04:11:09.955Z,13.91
2017-07-16T04:12:19.246Z,13.93
2017-07-16T04:13:29.486Z,13.91
2017-07-16T04:14:39.723Z,13.86
2017-07-16T04:15:50.210Z,13.87
2017-07-16T04:17:00.130Z,13.95
2017-07-16T04:18:10.366Z,13.98
2017-07-16T04:19:20.613Z,13.83
2017-07-16T04:20:30.852Z,13.91
2017-07-16T04:21:41.029Z,13.89
2017-07-16T04:22:50.949Z,13.89
2017-07-16T04:24:01.191Z,13.85
2017-07-16T04:25:11.129Z,13.93
2017-07-16T04:26:20.448Z,13.85
2017-07-16T04:27:30.638Z,13.78
2017-07-16T04:28:40.572Z,13.79
2017-07-16T04:29:50.818Z,13.78
2017-07-16T04:31:00.750Z,13.82
2017-07-16T04:32:11.013Z,13.76
2017-07-16T04:33:21.523Z,13.71
2017-07-16T04:34:31.791Z,13.87
2017-07-16T04:35:41.744Z,13.8
2017-07-16T04:36:52.028Z,13.93
2017-07-16T04:38:02.299Z,13.86
2017-07-16T04:39:12.487Z,13.83
2017-07-16T04:40:22.440Z,14.04
2017-07-16T04:41:31.766Z,13.98
2017-07-16T04:42:41.699Z,14.03
2017-07-16T04:43:51.968Z,14.07
2017-07-16T04:45:02.170Z,13.91
2017-07-16T04:46:12.442Z,14.07
2017-07-16T04:47:22.719Z,14.05
2017-07-16T04:48:32.991Z,14.12
2017-07-16T04:49:42.631Z,14.15
2017-07-16T04:50:53.222Z,14.19
2017-07-16T04:52:03.154Z,14.15
2017-07-16T04:53:13.104Z,14.2
2017-07-16T04:54:23.050Z,14.22
2017-07-16T04:55:33.325Z,14.2
2017-07-16T04:56:43.239Z,14.3
2017-07-16T04:57:53.498Z,14.3
2017-07-16T04:59:03.779Z,14.3
2017-07-16T05:00:14.052Z,14.3
2017-07-16T05:01:24.326Z,14.45
2017-07-16T05:02:34.210Z,14.48
2017-07-16T05:03:44.166Z,14.43
2017-07-16T05:04:54.460Z,14.56
2017-07-16T05:06:03.785Z,14.53
2017-07-16T05:07:13.735Z,14.53
2017-07-16T05:08:24.288Z,14.61
2017-07-16T05:09:34.568Z,14.59
2017-07-16T05:10:44.844Z,14.56
2017-07-16T05:11:54.463Z,14.62
2017-07-16T05:13:04.412Z,14.82
2017-07-16T05:14:14.983Z,14.87
2017-07-16T05:15:25.265Z,14.79
2017-07-16T05:16:35.216Z,14.87
2017-07-16T05:17:45.183Z,14.89
2017-07-16T05:18:55.127Z,14.9
2017-07-16T05:20:05.637Z,14.94
2017-07-16T05:21:15.912Z,14.99
2017-07-16T05:22:26.171Z,15
2017-07-16T05:23:36.433Z,15.07
2017-07-16T05:24:46.053Z,15.19
2017-07-16T05:25:56.571Z,15.12
2017-07-16T05:27:06.519Z,15.22
2017-07-16T05:28:16.463Z,15.18
2017-07-16T05:29:26.425Z,15.18
2017-07-16T05:30:36.370Z,15.29
2017-07-16T05:31:46.990Z,15.26
2017-07-16T05:32:57.274Z,15.27
2017-07-16T05:34:07.540Z,15.37
2017-07-16T05:35:17.805Z,15.43
2017-07-16T05:36:27.750Z,15.43
2017-07-16T05:37:38.257Z,15.5
2017-07-16T05:38:48.558Z,15.55
2017-07-16T05:39:58.837Z,15.6
2017-07-16T05:41:09.100Z,15.6
2017-07-16T05:42:19.038Z,15.6
2017-07-16T05:43:29.251Z,15.62
2017-07-16T05:44:39.523Z,15.67
2017-07-16T05:45:49.804Z,15.75
2017-07-16T05:47:00.264Z,15.75
2017-07-16T05:48:10.526Z,15.88
2017-07-16T05:49:20.089Z,15.98
2017-07-16T05:50:30.034Z,15.92
2017-07-16T05:51:40.299Z,16
2017-07-16T05:52:50.580Z,16.08
2017-07-16T05:53:59.897Z,16.1
2017-07-16T05:55:10.418Z,16.24
2017-07-16T05:56:20.678Z,16.28
2017-07-16T05:57:30.936Z,16.32
2017-07-16T05:58:40.902Z,16.37
2017-07-16T05:59:50.847Z,16.4
2017-07-16T06:01:01.047Z,16.47
2017-07-16T06:02:10.996Z,16.43
2017-07-16T06:03:20.938Z,16.5
2017-07-16T06:04:30.574Z,16.54
2017-07-16T06:05:40.885Z,16.66
2017-07-16T06:06:51.459Z,16.76
2017-07-16T06:08:01.420Z,16.77
2017-07-16T06:09:11.696Z,16.84
2017-07-16T06:10:21.958Z,16.99
2017-07-16T06:11:31.902Z,17.05
2017-07-16T06:12:42.395Z,17.13
2017-07-16T06:13:52.038Z,17.16
2017-07-16T06:15:02.291Z,17.22
2017-07-16T06:16:12.559Z,17.34
2017-07-16T06:17:22.827Z,17.38
2017-07-16T06:18:33.410Z,17.5
2017-07-16T06:19:43.350Z,17.63
2017-07-16T06:20:53.614Z,17.72
2017-07-16T06:22:03.878Z,17.71
2017-07-16T06:23:13.842Z,17.91
2017-07-16T06:24:24.367Z,18
2017-07-16T06:25:34.666Z,18.03
2017-07-16T06:26:44.961Z,18.03
2017-07-16T06:27:54.930Z,18.13
2017-07-16T06:29:05.208Z,18.13
2017-07-16T06:30:15.718Z,18.12
2017-07-16T06:31:26.018Z,18.13
2017-07-16T06:32:36.293Z,18.31
2017-07-16T06:33:46.557Z,18.21
2017-07-16T06:34:56.827Z,18.24
2017-07-16T06:36:07.336Z,18.24
2017-07-16T06:37:17.605Z,18.24
2017-07-16T06:38:27.558Z,18.3
2017-07-16T06:39:37.513Z,18.39
2017-07-16T06:40:47.783Z,18.42
2017-07-16T06:41:58.305Z,18.39
2017-07-16T06:43:08.564Z,18.37
2017-07-16T06:44:18.841Z,18.36
2017-07-16T06:45:28.787Z,18.51
2017-07-16T06:46:39.046Z,18.58
2017-07-16T06:47:49.237Z,18.68
2017-07-16T06:48:59.189Z,18.68
2017-07-16T06:50:09.146Z,18.7
2017-07-16T06:51:19.096Z,18.73
2017-07-16T06:52:29.031Z,18.71
2017-07-16T06:53:39.241Z,18.76
2017-07-16T06:54:49.521Z,18.74
2017-07-16T06:55:59.507Z,18.91
2017-07-16T06:57:09.776Z,18.81
2017-07-16T06:58:20.032Z,18.88
2017-07-16T06:59:30.558Z,18.88
2017-07-16T07:00:40.817Z,18.98
2017-07-16T07:01:51.103Z,19
2017-07-16T07:03:01.066Z,19.07
2017-07-16T07:04:11.348Z,19.17
2017-07-16T07:05:21.585Z,19.23
2017-07-16T07:06:31.870Z,19.26
2017-07-16T07:07:41.823Z,19.23
2017-07-16T07:08:52.092Z,19.37
2017-07-16T07:10:01.723Z,19.29
2017-07-16T07:11:12.227Z,19.38
2017-07-16T07:12:22.493Z,19.42
2017-07-16T07:13:32.763Z,19.35
2017-07-16T07:14:42.412Z,19.48
2017-07-16T07:15:52.677Z,19.48
2017-07-16T07:17:02.890Z,19.49
2017-07-16T07:18:13.157Z,19.38
2017-07-16T07:19:23.112Z,19.38
2017-07-16T07:20:33.072Z,19.3
2017-07-16T07:21:43.355Z,19.27
2017-07-16T07:22:53.890Z,19.22
2017-07-16T07:24:04.164Z,19.19
2017-07-16T07:25:14.127Z,19.2
2017-07-16T07:26:24.395Z,19.19
2017-07-16T07:27:34.033Z,19.17
2017-07-16T07:28:44.566Z,19.15
2017-07-16T07:29:54.214Z,19.15
2017-07-16T07:31:04.219Z,19.2
2017-07-16T07:32:14.178Z,19.23
2017-07-16T07:33:24.456Z,19.27
2017-07-16T07:34:34.664Z,19.32
2017-07-16T07:35:44.933Z,19.37
2017-07-16T07:36:54.889Z,19.35
2017-07-16T07:38:05.166Z,19.52
2017-07-16T07:39:15.126Z,19.44
2017-07-16T07:40:25.703Z,19.47
2017-07-16T07:41:35.960Z,19.55
2017-07-16T07:42:45.926Z,19.6
2017-07-16T07:43:56.206Z,19.71
2017-07-16T07:45:06.470Z,19.7
2017-07-16T07:46:17.346Z,19.85
2017-07-16T07:47:27.621Z,19.82
2017-07-16T07:48:37.878Z,19.81
2017-07-16T07:49:48.151Z,19.9
2017-07-16T07:50:58.447Z,19.85
2017-07-16T07:52:08.975Z,19.87
2017-07-16T07:53:19.307Z,20.03
2017-07-16T07:54:28.941Z,19.93
2017-07-16T07:55:38.901Z,19.93
2017-07-16T07:56:48.855Z,19.99
2017-07-16T07:57:59.448Z,19.97
2017-07-16T07:59:09.395Z,19.97
2017-07-16T08:00:19.670Z,20
2017-07-16T08:01:29.954Z,20.17
2017-07-16T08:02:39.961Z,20.19
2017-07-16T08:03:50.183Z,20.22
2017-07-16T08:05:00.452Z,20.26
2017-07-16T08:06:10.728Z,20.07
2017-07-16T08:07:21.040Z,20.11
2017-07-16T08:08:31.336Z,20.18
2017-07-16T08:09:41.871Z,20.21
2017-07-16T08:10:52.184Z,20.21
2017-07-16T08:12:02.456Z,20.33
2017-07-16T08:13:12.112Z,20.3
2017-07-16T08:14:22.078Z,20.36
2017-07-16T08:15:32.291Z,20.46
2017-07-16T08:16:42.247Z,20.56
2017-07-16T08:17:52.511Z,20.48
2017-07-16T08:19:02.812Z,20.49
2017-07-16T08:20:13.082Z,20.58
2017-07-16T08:21:23.310Z,20.66
2017-07-16T08:22:33.592Z,20.64
2017-07-16T08:23:43.882Z,20.73
2017-07-16T08:24:53.837Z,20.7
2017-07-16T08:26:04.121Z,20.59
2017-07-16T08:27:14.658Z,20.68
2017-07-16T08:28:24.949Z,20.73
2017-07-16T08:29:35.232Z,20.83
2017-07-16T08:30:45.525Z,20.96
2017-07-16T08:31:55.800Z,20.93
2017-07-16T08:33:05.998Z,21.11
2017-07-16T08:34:15.959Z,21.25
2017-07-16T08:35:26.249Z,21.23
2017-07-16T08:36:36.209Z,21.22
2017-07-16T08:37:46.512Z,21.45
2017-07-16T08:38:57.037Z,21.56
2017-07-16T08:40:07.018Z,21.66
2017-07-16T08:41:16.682Z,21.62
2017-07-16T08:42:26.665Z,21.69
2017-07-16T08:43:36.654Z,21.5
2017-07-16T08:44:46.862Z,21.5
2017-07-16T08:45:56.809Z,21.41
2017-07-16T08:47:07.084Z,21.48
2017-07-16T08:48:17.353Z,21.6
2017-07-16T08:49:27.303Z,21.8
2017-07-16T08:50:37.522Z,21.84
2017-07-16T08:51:47.491Z,21.89
2017-07-16T08:52:57.442Z,21.99
2017-07-16T08:54:07.400Z,22.01
2017-07-16T08:55:17.681Z,22.1
2017-07-16T08:56:27.567Z,21.94
2017-07-16T08:57:37.530Z,21.85
2017-07-16T08:58:47.500Z,21.78
2017-07-16T08:59:56.841Z,21.68
2017-07-16T09:01:07.128Z,21.77
2017-07-16T09:02:17.043Z,21.91
2017-07-16T09:03:27.370Z,22.04
2017-07-16T09:04:37.012Z,22.01
2017-07-16T09:05:47.299Z,22.01
2017-07-16T09:06:57.273Z,22.15
2017-07-16T09:08:07.477Z,22.31
2017-07-16T09:09:17.447Z,22.33
2017-07-16T09:10:27.392Z,22.31
2017-07-16T09:11:37.336Z,22.52
2017-07-16T09:12:47.301Z,22.37
2017-07-16T09:13:57.535Z,22.49
2017-07-16T09:15:07.497Z,22.41
2017-07-16T09:16:17.158Z,22.49
2017-07-16T09:17:27.460Z,22.53
2017-07-16T09:18:37.633Z,22.53
2017-07-16T09:19:47.865Z,22.52
2017-07-16T09:20:57.505Z,22.71
2017-07-16T09:22:07.787Z,22.81
2017-07-16T09:23:17.733Z,22.86
2017-07-16T09:24:27.998Z,22.84
2017-07-16T09:25:38.214Z,22.91
2017-07-16T09:26:48.510Z,22.78
2017-07-16T09:27:58.815Z,22.92
2017-07-16T09:29:09.130Z,22.83
2017-07-16T09:30:19.081Z,22.88
2017-07-16T09:31:29.336Z,22.83
2017-07-16T09:32:39.624Z,23.04
2017-07-16T09:33:49.920Z,22.99
2017-07-16T09:35:00.198Z,22.84
2017-07-16T09:36:10.488Z,22.67
2017-07-16T09:37:20.698Z,22.73
2017-07-16T09:38:30.992Z,22.49
2017-07-16T09:39:40.963Z,22.47
2017-07-16T09:40:50.933Z,22.31
2017-07-16T09:42:00.921Z,22.3
2017-07-16T09:43:10.815Z,22.3
2017-07-16T09:44:20.446Z,22.38
2017-07-16T09:45:30.109Z,22.41
2017-07-16T09:46:39.747Z,22.47
2017-07-16T09:47:50.016Z,22.52
2017-07-16T09:48:59.926Z,22.61
2017-07-16T09:50:09.895Z,22.61
2017-07-16T09:51:20.166Z,22.62
2017-07-16T09:52:30.116Z,22.73
2017-07-16T09:53:40.085Z,22.7
2017-07-16T09:54:50.302Z,22.74
2017-07-16T09:56:00.263Z,22.83
2017-07-16T09:57:10.249Z,22.81
2017-07-16T09:58:20.547Z,22.84
2017-07-16T09:59:30.514Z,22.81
2017-07-16T10:00:41.042Z,22.74
2017-07-16T10:01:51.320Z,22.77
2017-07-16T10:03:01.291Z,22.71
2017-07-16T10:04:11.584Z,22.93
2017-07-16T10:05:21.537Z,23.01
2017-07-16T10:06:31.113Z,23.08
2017-07-16T10:07:41.065Z,23.23
2017-07-16T10:08:51.338Z,23.34
2017-07-16T10:10:01.620Z,23.26
2017-07-16T10:11:11.900Z,23.2
2017-07-16T10:12:22.449Z,23.11
2017-07-16T10:13:32.731Z,22.98
2017-07-16T10:14:43.045Z,23.1
2017-07-16T10:15:53.344Z,23.01
2017-07-16T10:17:03.611Z,23.06
2017-07-16T10:18:13.855Z,23.25
2017-07-16T10:19:23.807Z,23.29
2017-07-16T10:20:34.085Z,23.37
2017-07-16T10:21:44.033Z,23.28
2017-07-16T10:22:54.314Z,23.33
2017-07-16T10:24:04.834Z,23.32
2017-07-16T10:25:15.128Z,23.4
2017-07-16T10:26:25.409Z,23.48
2017-07-16T10:27:35.051Z,23.04
2017-07-16T10:28:45.350Z,23.02
2017-07-16T10:29:56.115Z,22.96
2017-07-16T10:31:06.421Z,23.01
2017-07-16T10:32:16.392Z,23.02
2017-07-16T10:33:26.349Z,23.01
2017-07-16T10:34:36.622Z,23.01
2017-07-16T10:35:46.827Z,23.02
2017-07-16T10:36:56.796Z,22.84
2017-07-16T10:38:07.068Z,22.98
2017-07-16T10:39:17.332Z,23.02
2017-07-16T10:40:27.627Z,23.08
2017-07-16T10:41:38.174Z,22.98
2017-07-16T10:42:48.456Z,23.16
2017-07-16T10:43:58.738Z,23.25
2017-07-16T10:45:09.032Z,23.33
2017-07-16T10:46:19.321Z,23.48
2017-07-16T10:47:29.853Z,23.49
2017-07-16T10:48:40.189Z,23.67
2017-07-16T10:49:50.153Z,23.59
2017-07-16T10:51:00.436Z,23.56
2017-07-16T10:52:10.386Z,23.58
2017-07-16T10:53:20.609Z,23.4
2017-07-16T10:54:30.892Z,23.13
2017-07-16T10:55:40.891Z,23.06
2017-07-16T10:56:51.225Z,23.32
2017-07-16T10:58:01.504Z,23.51
2017-07-16T10:59:12.089Z,23.56
2017-07-16T11:00:22.367Z,23.71
2017-07-16T11:01:32.666Z,23.82
2017-07-16T11:02:42.643Z,23.84
2017-07-16T11:03:52.626Z,24.24
2017-07-16T11:05:02.877Z,24.26
2017-07-16T11:06:12.842Z,24.47
2017-07-16T11:07:23.145Z,24.46
2017-07-16T11:08:32.806Z,24.5
2017-07-16T11:09:43.110Z,24.56
2017-07-16T11:10:53.643Z,24.34
2017-07-16T11:12:03.936Z,24.18
2017-07-16T11:13:13.583Z,23.99
2017-07-16T11:14:23.862Z,23.99
2017-07-16T11:15:34.133Z,24.16
2017-07-16T11:16:44.666Z,24.36
2017-07-16T11:17:54.630Z,24.44
2017-07-16T11:19:04.903Z,24.59
2017-07-16T11:20:14.873Z,24.44
2017-07-16T11:21:24.858Z,24.22
2017-07-16T11:22:35.080Z,24.22
2017-07-16T11:23:45.360Z,24.18
2017-07-16T11:24:55.668Z,24.22
2017-07-16T11:26:05.638Z,24.24
2017-07-16T11:27:15.916Z,24.24
2017-07-16T11:28:26.452Z,24.31
2017-07-16T11:29:36.429Z,24.38
2017-07-16T11:30:46.724Z,24.26
2017-07-16T11:31:56.699Z,24.24
2017-07-16T11:33:07.002Z,23.95
2017-07-16T11:34:17.202Z,23.92
2017-07-16T11:35:27.496Z,23.77
2017-07-16T11:36:37.802Z,23.64
2017-07-16T11:37:47.777Z,23.62
2017-07-16T11:38:58.067Z,23.56
2017-07-16T11:40:08.290Z,23.51
2017-07-16T11:41:18.262Z,23.48
2017-07-16T11:42:28.226Z,23.47
2017-07-16T11:43:38.500Z,23.47
2017-07-16T11:44:48.472Z,23.82
2017-07-16T11:45:58.994Z,23.81
2017-07-16T11:47:09.280Z,23.79
2017-07-16T11:48:19.251Z,23.89
2017-07-16T11:49:29.543Z,23.86
2017-07-16T11:50:39.824Z,23.85
2017-07-16T11:51:50.377Z,23.73
2017-07-16T11:53:00.686Z,23.95
2017-07-16T11:54:10.655Z,24
2017-07-16T11:55:20.625Z,24.21
2017-07-16T11:56:30.913Z,24.01
2017-07-16T11:57:41.439Z,23.79
2017-07-16T11:58:51.412Z,23.71
2017-07-16T12:00:01.380Z,23.76
2017-07-16T12:01:11.366Z,23.71
2017-07-16T12:02:21.661Z,23.76
2017-07-16T12:03:31.872Z,23.76
2017-07-16T12:04:42.154Z,23.47
2017-07-16T12:05:52.127Z,23.26
2017-07-16T12:07:02.135Z,23.25
2017-07-16T12:08:12.094Z,23.13
2017-07-16T12:09:22.317Z,23.07
2017-07-16T12:10:32.268Z,23.14
2017-07-16T12:11:42.576Z,23.06
2017-07-16T12:12:52.870Z,23.07
2017-07-16T12:14:02.845Z,22.98
2017-07-16T12:15:13.547Z,22.89
2017-07-16T12:16:23.855Z,22.81
2017-07-16T12:17:34.145Z,22.71
2017-07-16T12:18:44.412Z,22.84
2017-07-16T12:19:54.693Z,22.86
2017-07-16T12:21:05.257Z,22.81
2017-07-16T12:22:15.239Z,22.88
2017-07-16T12:23:25.539Z,22.83
2017-07-16T12:24:35.820Z,22.83
2017-07-16T12:25:46.090Z,22.83
2017-07-16T12:26:56.851Z,22.83
2017-07-16T12:28:07.118Z,22.74
2017-07-16T12:29:17.086Z,22.65
2017-07-16T12:30:27.378Z,22.52
2017-07-16T12:31:37.017Z,22.52
2017-07-16T12:32:47.252Z,22.37
2017-07-16T12:33:57.545Z,22.34
2017-07-16T12:35:07.502Z,22.19
2017-07-16T12:36:17.782Z,22.23
2017-07-16T12:37:28.071Z,22.16
2017-07-16T12:38:38.590Z,22.33
2017-07-16T12:39:48.885Z,22.3
2017-07-16T12:40:59.170Z,22.31
2017-07-16T12:42:09.119Z,22.41
2017-07-16T12:43:19.402Z,22.34
2017-07-16T12:44:29.608Z,22.51
2017-07-16T12:45:39.608Z,22.37
2017-07-16T12:46:49.561Z,22.4
2017-07-16T12:47:59.832Z,22.43
2017-07-16T12:49:10.122Z,22.36
2017-07-16T12:50:20.644Z,22.37
2017-07-16T12:51:30.940Z,22.36
2017-07-16T12:52:41.215Z,22.4
2017-07-16T12:53:51.171Z,22.4
2017-07-16T12:55:01.119Z,22.51
2017-07-16T12:56:11.641Z,22.62
2017-07-16T12:57:21.918Z,22.65
2017-07-16T12:58:32.085Z,22.67
2017-07-16T12:59:42.048Z,22.83
2017-07-16T13:00:52.331Z,22.84
2017-07-16T13:02:02.920Z,22.95
2017-07-16T13:03:12.892Z,23.04
2017-07-16T13:04:23.176Z,23.06
2017-07-16T13:05:33.468Z,23.04
2017-07-16T13:06:43.740Z,23.02
2017-07-16T13:07:54.002Z,22.96
2017-07-16T13:09:03.983Z,22.84
2017-07-16T13:10:14.284Z,22.78
2017-07-16T13:11:24.253Z,22.76
2017-07-16T13:12:34.538Z,22.92
2017-07-16T13:13:45.085Z,22.93
2017-07-16T13:14:55.073Z,23.04
2017-07-16T13:16:05.363Z,22.98
2017-07-16T13:17:15.624Z,23.04
2017-07-16T13:18:25.620Z,23.02
2017-07-16T13:19:35.833Z,22.99
2017-07-16T13:20:45.793Z,23.02
2017-07-16T13:21:55.447Z,23.06
2017-07-16T13:23:05.407Z,23.02
2017-07-16T13:24:15.365Z,22.99
2017-07-16T13:25:25.627Z,22.86
2017-07-16T13:26:35.935Z,22.89
2017-07-16T13:27:45.920Z,22.89
2017-07-16T13:28:55.915Z,22.89
2017-07-16T13:30:05.878Z,22.84
2017-07-16T13:31:16.102Z,22.83
2017-07-16T13:32:25.773Z,22.91
2017-07-16T13:33:36.055Z,22.83
2017-07-16T13:34:46.001Z,22.88
2017-07-16T13:35:56.257Z,22.81
2017-07-16T13:37:06.807Z,22.67
2017-07-16T13:38:16.145Z,22.7
2017-07-16T13:39:26.121Z,22.65
2017-07-16T13:40:36.445Z,22.62
2017-07-16T13:41:46.108Z,22.77
2017-07-16T13:42:56.688Z,22.77
2017-07-16T13:44:06.985Z,22.77
2017-07-16T13:45:17.267Z,22.71
2017-07-16T13:46:27.542Z,22.77
2017-07-16T13:47:37.812Z,22.7
2017-07-16T13:48:47.705Z,22.65
2017-07-16T13:49:57.987Z,22.84
2017-07-16T13:51:08.275Z,22.86
2017-07-16T13:52:18.552Z,22.96
2017-07-16T13:53:28.845Z,23.02
2017-07-16T13:54:39.404Z,23.01
2017-07-16T13:55:49.682Z,23.01
2017-07-16T13:56:59.327Z,23.04
2017-07-16T13:58:09.597Z,23.01
2017-07-16T13:59:19.889Z,23.02
2017-07-16T14:00:30.151Z,23.06
2017-07-16T14:01:40.137Z,22.98
2017-07-16T14:02:50.413Z,22.83
2017-07-16T14:04:00.705Z,22.88
2017-07-16T14:05:10.987Z,22.89
2017-07-16T14:06:21.526Z,22.91
2017-07-16T14:07:31.795Z,22.99
2017-07-16T14:08:42.092Z,22.86
2017-07-16T14:09:52.381Z,22.96
2017-07-16T14:11:02.674Z,22.98
2017-07-16T14:12:12.904Z,23.04
2017-07-16T14:13:23.179Z,22.98
2017-07-16T14:14:33.464Z,22.88
2017-07-16T14:15:43.433Z,22.89
2017-07-16T14:16:53.711Z,22.8
2017-07-16T14:18:03.930Z,22.84
2017-07-16T14:19:13.905Z,22.8
2017-07-16T14:20:23.873Z,22.84
2017-07-16T14:21:34.143Z,23.01
2017-07-16T14:22:44.429Z,22.93
2017-07-16T14:23:54.943Z,22.83
2017-07-16T14:25:05.232Z,22.99
2017-07-16T14:26:15.185Z,23.14
2017-07-16T14:27:25.468Z,23.14
2017-07-16T14:28:35.748Z,23.04
2017-07-16T14:29:46.274Z,23.01
2017-07-16T14:30:56.227Z,23.1
2017-07-16T14:32:06.521Z,23.02
2017-07-16T14:33:16.814Z,22.96
2017-07-16T14:34:27.107Z,22.89
2017-07-16T14:35:37.640Z,22.83
2017-07-16T14:36:47.928Z,22.84
2017-07-16T14:37:57.581Z,22.93
2017-07-16T14:39:07.554Z,22.93
2017-07-16T14:40:17.823Z,22.92
2017-07-16T14:41:28.367Z,22.99
2017-07-16T14:42:38.654Z,22.92
2017-07-16T14:43:48.665Z,22.89
2017-07-16T14:44:58.941Z,22.81
2017-07-16T14:46:09.207Z,22.95
2017-07-16T14:47:18.780Z,23.01
2017-07-16T14:48:28.756Z,23.01
2017-07-16T14:49:39.056Z,23.01
2017-07-16T14:50:49.027Z,22.99
2017-07-16T14:51:59.311Z,23.06
2017-07-16T14:53:09.836Z,23.04
2017-07-16T14:54:19.818Z,23.01
2017-07-16T14:55:30.101Z,23.01
2017-07-16T14:56:39.748Z,23.02
2017-07-16T14:57:49.712Z,23.01
2017-07-16T14:58:59.929Z,23.02
2017-07-16T15:00:10.220Z,22.95
2017-07-16T15:01:20.520Z,23.06
2017-07-16T15:02:30.796Z,23.06
2017-07-16T15:03:40.448Z,23.06
2017-07-16T15:04:50.710Z,22.98
2017-07-16T15:06:01.006Z,22.96